sensor_id;sensor_type;location;lat;lon;timestamp;P1;durP1;ratioP1;P2;durP2;ratioP2
61200;SDS011;47065;52.898;6.992;2022-11-11T00:01:03;13.32;;;5.82;;
61200;SDS011;47065;52.898;6.992;2022-11-11T00:03:31;11.27;;;5.38;;
61200;SDS011;47065;52.898;6.992;2022-11-11T00:06:04;11.18;;;5.93;;
61200;SDS011;47065;52.898;6.992;2022-11-11T00:08:31;13.90;;;6.25;;
61200;SDS011;47065;52.898;6.992;2022-11-11T00:11:04;18.58;;;6.93;;
61200;SDS011;47065;52.898;6.992;2022-11-11T00:13:31;22.83;;;8.65;;
61200;SDS011;47065;52.898;6.992;2022-11-11T00:18:30;14.48;;;6.68;;
61200;SDS011;47065;52.898;6.992;2022-11-11T00:21:14;13.80;;;6.88;;
61200;SDS011;47065;52.898;6.992;2022-11-11T00:23:59;19.48;;;9.18;;
61200;SDS011;47065;52.898;6.992;2022-11-11T00:26:43;17.95;;;6.68;;
61200;SDS011;47065;52.898;6.992;2022-11-11T00:29:09;18.20;;;7.18;;
61200;SDS011;47065;52.898;6.992;2022-11-11T00:31:45;12.57;;;6.95;;
61200;SDS011;47065;52.898;6.992;2022-11-11T00:34:29;13.18;;;6.35;;
61200;SDS011;47065;52.898;6.992;2022-11-11T00:36:55;8.63;;;7.03;;
61200;SDS011;47065;52.898;6.992;2022-11-11T00:39:20;15.55;;;7.05;;
61200;SDS011;47065;52.898;6.992;2022-11-11T00:41:46;11.65;;;6.60;;
61200;SDS011;47065;52.898;6.992;2022-11-11T00:44:11;14.20;;;7.07;;
61200;SDS011;47065;52.898;6.992;2022-11-11T00:46:37;15.18;;;7.03;;
61200;SDS011;47065;52.898;6.992;2022-11-11T00:49:21;13.80;;;8.32;;
61200;SDS011;47065;52.898;6.992;2022-11-11T00:52:06;20.63;;;7.55;;
61200;SDS011;47065;52.898;6.992;2022-11-11T00:54:31;13.90;;;7.78;;
61200;SDS011;47065;52.898;6.992;2022-11-11T00:56:57;15.50;;;7.70;;
61200;SDS011;47065;52.898;6.992;2022-11-11T00:59:22;16.40;;;7.82;;
61200;SDS011;47065;52.898;6.992;2022-11-11T01:01:48;14.35;;;7.72;;
61200;SDS011;47065;52.898;6.992;2022-11-11T01:04:13;17.95;;;8.50;;
61200;SDS011;47065;52.898;6.992;2022-11-11T01:06:39;20.83;;;8.35;;
61200;SDS011;47065;52.898;6.992;2022-11-11T01:09:05;15.32;;;8.30;;
61200;SDS011;47065;52.898;6.992;2022-11-11T01:11:31;13.63;;;7.90;;
61200;SDS011;47065;52.898;6.992;2022-11-11T01:13:57;18.35;;;7.93;;
61200;SDS011;47065;52.898;6.992;2022-11-11T01:16:24;17.80;;;8.10;;
61200;SDS011;47065;52.898;6.992;2022-11-11T01:18:51;15.10;;;7.97;;
61200;SDS011;47065;52.898;6.992;2022-11-11T01:21:22;19.55;;;8.70;;
61200;SDS011;47065;52.898;6.992;2022-11-11T01:23:49;11.27;;;8.18;;
61200;SDS011;47065;52.898;6.992;2022-11-11T01:26:22;17.88;;;8.25;;
61200;SDS011;47065;52.898;6.992;2022-11-11T01:28:50;15.88;;;8.25;;
61200;SDS011;47065;52.898;6.992;2022-11-11T01:31:17;15.23;;;9.27;;
61200;SDS011;47065;52.898;6.992;2022-11-11T01:33:44;22.55;;;9.75;;
61200;SDS011;47065;52.898;6.992;2022-11-11T01:36:11;14.35;;;9.23;;
61200;SDS011;47065;52.898;6.992;2022-11-11T01:38:42;17.05;;;9.75;;
61200;SDS011;47065;52.898;6.992;2022-11-11T01:41:10;18.85;;;9.43;;
61200;SDS011;47065;52.898;6.992;2022-11-11T01:43:55;23.95;;;11.45;;
61200;SDS011;47065;52.898;6.992;2022-11-11T01:48:54;17.45;;;9.98;;
61200;SDS011;47065;52.898;6.992;2022-11-11T01:51:46;15.50;;;10.48;;
61200;SDS011;47065;52.898;6.992;2022-11-11T01:54:26;26.27;;;10.32;;
61200;SDS011;47065;52.898;6.992;2022-11-11T01:56:59;17.38;;;10.75;;
61200;SDS011;47065;52.898;6.992;2022-11-11T01:59:28;20.40;;;10.70;;
61200;SDS011;47065;52.898;6.992;2022-11-11T02:01:56;17.23;;;11.50;;
61200;SDS011;47065;52.898;6.992;2022-11-11T02:04:23;22.73;;;11.48;;
61200;SDS011;47065;52.898;6.992;2022-11-11T02:07:08;19.10;;;11.90;;
61200;SDS011;47065;52.898;6.992;2022-11-11T02:09:35;28.63;;;12.10;;
61200;SDS011;47065;52.898;6.992;2022-11-11T02:12:05;22.67;;;11.75;;
61200;SDS011;47065;52.898;6.992;2022-11-11T02:14:52;25.80;;;12.55;;
61200;SDS011;47065;52.898;6.992;2022-11-11T02:17:22;23.38;;;12.40;;
61200;SDS011;47065;52.898;6.992;2022-11-11T02:19:53;21.42;;;12.57;;
61200;SDS011;47065;52.898;6.992;2022-11-11T02:25:08;17.33;;;10.57;;
61200;SDS011;47065;52.898;6.992;2022-11-11T02:27:38;19.48;;;12.15;;
61200;SDS011;47065;52.898;6.992;2022-11-11T02:30:07;20.25;;;12.20;;
61200;SDS011;47065;52.898;6.992;2022-11-11T02:32:39;19.83;;;11.75;;
61200;SDS011;47065;52.898;6.992;2022-11-11T02:35:10;20.80;;;11.80;;
61200;SDS011;47065;52.898;6.992;2022-11-11T02:37:38;27.65;;;13.57;;
61200;SDS011;47065;52.898;6.992;2022-11-11T02:40:06;22.10;;;13.50;;
61200;SDS011;47065;52.898;6.992;2022-11-11T02:42:35;27.25;;;13.40;;
61200;SDS011;47065;52.898;6.992;2022-11-11T02:45:01;21.48;;;14.77;;
61200;SDS011;47065;52.898;6.992;2022-11-11T02:47:26;27.88;;;14.85;;
61200;SDS011;47065;52.898;6.992;2022-11-11T02:49:52;23.55;;;13.35;;
61200;SDS011;47065;52.898;6.992;2022-11-11T02:52:18;23.58;;;14.07;;
61200;SDS011;47065;52.898;6.992;2022-11-11T02:54:43;28.67;;;13.52;;
61200;SDS011;47065;52.898;6.992;2022-11-11T02:57:09;22.80;;;15.13;;
61200;SDS011;47065;52.898;6.992;2022-11-11T02:59:35;24.88;;;14.25;;
61200;SDS011;47065;52.898;6.992;2022-11-11T03:02:05;24.23;;;15.88;;
61200;SDS011;47065;52.898;6.992;2022-11-11T03:04:31;28.38;;;16.50;;
61200;SDS011;47065;52.898;6.992;2022-11-11T03:06:57;30.40;;;16.25;;
61200;SDS011;47065;52.898;6.992;2022-11-11T03:09:23;27.95;;;16.33;;
61200;SDS011;47065;52.898;6.992;2022-11-11T03:11:49;24.48;;;16.13;;
61200;SDS011;47065;52.898;6.992;2022-11-11T03:14:14;25.23;;;15.50;;
61200;SDS011;47065;52.898;6.992;2022-11-11T03:16:40;31.10;;;17.65;;
61200;SDS011;47065;52.898;6.992;2022-11-11T03:19:24;31.27;;;16.63;;
61200;SDS011;47065;52.898;6.992;2022-11-11T03:21:50;31.85;;;17.95;;
61200;SDS011;47065;52.898;6.992;2022-11-11T03:24:15;26.90;;;15.82;;
61200;SDS011;47065;52.898;6.992;2022-11-11T03:26:41;32.33;;;18.30;;
61200;SDS011;47065;52.898;6.992;2022-11-11T03:29:07;28.85;;;18.20;;
61200;SDS011;47065;52.898;6.992;2022-11-11T03:31:32;27.80;;;17.35;;
61200;SDS011;47065;52.898;6.992;2022-11-11T03:33:58;33.55;;;18.73;;
61200;SDS011;47065;52.898;6.992;2022-11-11T03:36:42;31.75;;;19.15;;
61200;SDS011;47065;52.898;6.992;2022-11-11T03:39:27;31.77;;;18.25;;
61200;SDS011;47065;52.898;6.992;2022-11-11T03:41:53;34.53;;;19.38;;
61200;SDS011;47065;52.898;6.992;2022-11-11T03:44:20;28.35;;;18.30;;
61200;SDS011;47065;52.898;6.992;2022-11-11T03:46:46;38.50;;;21.45;;
61200;SDS011;47065;52.898;6.992;2022-11-11T03:49:11;30.38;;;18.23;;
61200;SDS011;47065;52.898;6.992;2022-11-11T03:51:37;34.80;;;19.85;;
61200;SDS011;47065;52.898;6.992;2022-11-11T03:54:02;39.85;;;20.52;;
61200;SDS011;47065;52.898;6.992;2022-11-11T03:56:28;36.60;;;20.45;;
61200;SDS011;47065;52.898;6.992;2022-11-11T03:58:54;35.97;;;20.25;;
61200;SDS011;47065;52.898;6.992;2022-11-11T04:01:19;33.15;;;20.35;;
61200;SDS011;47065;52.898;6.992;2022-11-11T04:04:03;43.22;;;22.27;;
61200;SDS011;47065;52.898;6.992;2022-11-11T04:06:48;33.13;;;21.15;;
61200;SDS011;47065;52.898;6.992;2022-11-11T04:09:32;36.13;;;21.98;;
61200;SDS011;47065;52.898;6.992;2022-11-11T04:12:16;33.78;;;18.90;;
61200;SDS011;47065;52.898;6.992;2022-11-11T04:14:42;36.67;;;22.88;;
61200;SDS011;47065;52.898;6.992;2022-11-11T04:17:43;37.95;;;20.92;;
61200;SDS011;47065;52.898;6.992;2022-11-11T04:20:09;40.88;;;21.10;;
61200;SDS011;47065;52.898;6.992;2022-11-11T04:22:53;37.22;;;20.25;;
61200;SDS011;47065;52.898;6.992;2022-11-11T04:25:19;34.10;;;20.55;;
61200;SDS011;47065;52.898;6.992;2022-11-11T04:28:03;45.42;;;22.08;;
61200;SDS011;47065;52.898;6.992;2022-11-11T04:30:47;40.23;;;22.70;;
61200;SDS011;47065;52.898;6.992;2022-11-11T04:33:13;40.85;;;22.05;;
61200;SDS011;47065;52.898;6.992;2022-11-11T04:35:38;37.65;;;21.77;;
61200;SDS011;47065;52.898;6.992;2022-11-11T04:38:04;32.58;;;20.80;;
61200;SDS011;47065;52.898;6.992;2022-11-11T04:40:50;38.75;;;21.77;;
61200;SDS011;47065;52.898;6.992;2022-11-11T04:43:28;38.15;;;20.90;;
61200;SDS011;47065;52.898;6.992;2022-11-11T04:45:58;36.85;;;20.27;;
61200;SDS011;47065;52.898;6.992;2022-11-11T04:48:24;37.80;;;21.42;;
61200;SDS011;47065;52.898;6.992;2022-11-11T04:50:49;35.53;;;23.30;;
61200;SDS011;47065;52.898;6.992;2022-11-11T04:53:15;33.70;;;19.98;;
61200;SDS011;47065;52.898;6.992;2022-11-11T04:55:41;39.05;;;21.15;;
61200;SDS011;47065;52.898;6.992;2022-11-11T04:58:28;31.67;;;19.60;;
61200;SDS011;47065;52.898;6.992;2022-11-11T05:00:55;39.10;;;20.80;;
61200;SDS011;47065;52.898;6.992;2022-11-11T05:03:21;33.30;;;21.02;;
61200;SDS011;47065;52.898;6.992;2022-11-11T05:05:53;27.65;;;20.20;;
61200;SDS011;47065;52.898;6.992;2022-11-11T05:08:39;35.05;;;19.80;;
61200;SDS011;47065;52.898;6.992;2022-11-11T05:11:32;34.30;;;19.45;;
61200;SDS011;47065;52.898;6.992;2022-11-11T05:14:00;36.15;;;20.15;;
61200;SDS011;47065;52.898;6.992;2022-11-11T05:16:50;29.67;;;20.13;;
61200;SDS011;47065;52.898;6.992;2022-11-11T05:19:36;33.25;;;20.67;;
61200;SDS011;47065;52.898;6.992;2022-11-11T05:24:59;34.33;;;18.80;;
61200;SDS011;47065;52.898;6.992;2022-11-11T05:27:43;35.45;;;18.75;;
61200;SDS011;47065;52.898;6.992;2022-11-11T05:30:10;33.40;;;18.52;;
61200;SDS011;47065;52.898;6.992;2022-11-11T05:32:36;31.15;;;20.58;;
61200;SDS011;47065;52.898;6.992;2022-11-11T05:35:03;33.72;;;19.88;;
61200;SDS011;47065;52.898;6.992;2022-11-11T05:37:30;36.00;;;19.88;;
61200;SDS011;47065;52.898;6.992;2022-11-11T05:39:56;36.53;;;19.33;;
61200;SDS011;47065;52.898;6.992;2022-11-11T05:42:21;29.80;;;17.95;;
61200;SDS011;47065;52.898;6.992;2022-11-11T05:44:47;33.10;;;18.80;;
61200;SDS011;47065;52.898;6.992;2022-11-11T05:47:13;32.90;;;19.52;;
61200;SDS011;47065;52.898;6.992;2022-11-11T05:49:39;39.20;;;18.95;;
61200;SDS011;47065;52.898;6.992;2022-11-11T05:52:05;33.40;;;19.30;;
61200;SDS011;47065;52.898;6.992;2022-11-11T05:54:32;36.15;;;18.52;;
61200;SDS011;47065;52.898;6.992;2022-11-11T05:56:57;30.25;;;17.70;;
61200;SDS011;47065;52.898;6.992;2022-11-11T05:59:24;31.08;;;19.30;;
61200;SDS011;47065;52.898;6.992;2022-11-11T06:01:50;28.83;;;19.13;;
61200;SDS011;47065;52.898;6.992;2022-11-11T06:04:16;36.20;;;19.63;;
61200;SDS011;47065;52.898;6.992;2022-11-11T06:06:41;27.73;;;18.48;;
61200;SDS011;47065;52.898;6.992;2022-11-11T06:09:07;26.23;;;16.27;;
61200;SDS011;47065;52.898;6.992;2022-11-11T06:11:33;33.40;;;19.30;;
61200;SDS011;47065;52.898;6.992;2022-11-11T06:13:58;28.33;;;17.17;;
61200;SDS011;47065;52.898;6.992;2022-11-11T06:16:24;38.72;;;18.15;;
61200;SDS011;47065;52.898;6.992;2022-11-11T06:18:50;25.50;;;17.17;;
61200;SDS011;47065;52.898;6.992;2022-11-11T06:21:16;30.63;;;18.13;;
61200;SDS011;47065;52.898;6.992;2022-11-11T06:23:42;32.22;;;17.77;;
61200;SDS011;47065;52.898;6.992;2022-11-11T06:26:09;33.40;;;19.05;;
61200;SDS011;47065;52.898;6.992;2022-11-11T06:28:40;30.33;;;17.13;;
61200;SDS011;47065;52.898;6.992;2022-11-11T06:31:08;36.20;;;19.65;;
61200;SDS011;47065;52.898;6.992;2022-11-11T06:33:35;31.25;;;18.42;;
61200;SDS011;47065;52.898;6.992;2022-11-11T06:36:01;29.38;;;18.88;;
61200;SDS011;47065;52.898;6.992;2022-11-11T06:38:28;32.35;;;17.48;;
61200;SDS011;47065;52.898;6.992;2022-11-11T06:40:53;27.58;;;17.60;;
61200;SDS011;47065;52.898;6.992;2022-11-11T06:43:19;32.63;;;19.92;;
61200;SDS011;47065;52.898;6.992;2022-11-11T06:45:47;27.75;;;17.30;;
61200;SDS011;47065;52.898;6.992;2022-11-11T06:48:15;28.75;;;17.25;;
61200;SDS011;47065;52.898;6.992;2022-11-11T06:50:41;30.60;;;18.27;;
61200;SDS011;47065;52.898;6.992;2022-11-11T06:53:07;27.27;;;17.40;;
61200;SDS011;47065;52.898;6.992;2022-11-11T06:55:34;26.00;;;17.05;;
61200;SDS011;47065;52.898;6.992;2022-11-11T07:00:52;29.13;;;17.27;;
61200;SDS011;47065;52.898;6.992;2022-11-11T07:03:19;30.25;;;17.63;;
61200;SDS011;47065;52.898;6.992;2022-11-11T07:05:45;27.75;;;17.58;;
61200;SDS011;47065;52.898;6.992;2022-11-11T07:08:12;30.77;;;16.70;;
61200;SDS011;47065;52.898;6.992;2022-11-11T07:10:43;28.70;;;17.17;;
61200;SDS011;47065;52.898;6.992;2022-11-11T07:13:09;24.27;;;15.68;;
61200;SDS011;47065;52.898;6.992;2022-11-11T07:15:35;26.73;;;15.88;;
61200;SDS011;47065;52.898;6.992;2022-11-11T07:18:01;31.70;;;17.02;;
61200;SDS011;47065;52.898;6.992;2022-11-11T07:20:28;27.20;;;16.70;;
61200;SDS011;47065;52.898;6.992;2022-11-11T07:22:54;27.30;;;16.13;;
61200;SDS011;47065;52.898;6.992;2022-11-11T07:25:20;27.88;;;17.00;;
61200;SDS011;47065;52.898;6.992;2022-11-11T07:27:45;25.50;;;15.20;;
61200;SDS011;47065;52.898;6.992;2022-11-11T07:30:11;29.27;;;15.85;;
61200;SDS011;47065;52.898;6.992;2022-11-11T07:32:42;25.40;;;14.82;;
61200;SDS011;47065;52.898;6.992;2022-11-11T07:35:11;24.83;;;15.73;;
61200;SDS011;47065;52.898;6.992;2022-11-11T07:37:38;26.05;;;15.95;;
61200;SDS011;47065;52.898;6.992;2022-11-11T07:40:04;31.23;;;17.25;;
61200;SDS011;47065;52.898;6.992;2022-11-11T07:42:30;25.00;;;15.10;;
61200;SDS011;47065;52.898;6.992;2022-11-11T07:44:56;27.98;;;15.82;;
61200;SDS011;47065;52.898;6.992;2022-11-11T07:47:22;30.27;;;17.08;;
61200;SDS011;47065;52.898;6.992;2022-11-11T07:49:47;25.17;;;15.73;;
61200;SDS011;47065;52.898;6.992;2022-11-11T07:52:13;21.38;;;15.43;;
61200;SDS011;47065;52.898;6.992;2022-11-11T07:54:38;29.10;;;16.08;;
61200;SDS011;47065;52.898;6.992;2022-11-11T07:57:04;28.65;;;14.98;;
61200;SDS011;47065;52.898;6.992;2022-11-11T07:59:30;24.38;;;15.05;;
61200;SDS011;47065;52.898;6.992;2022-11-11T08:01:55;26.30;;;16.85;;
61200;SDS011;47065;52.898;6.992;2022-11-11T08:04:21;24.33;;;15.25;;
61200;SDS011;47065;52.898;6.992;2022-11-11T08:06:46;25.17;;;16.55;;
61200;SDS011;47065;52.898;6.992;2022-11-11T08:09:12;26.23;;;16.08;;
61200;SDS011;47065;52.898;6.992;2022-11-11T08:11:37;23.52;;;14.98;;
61200;SDS011;47065;52.898;6.992;2022-11-11T08:14:22;31.45;;;15.40;;
61200;SDS011;47065;52.898;6.992;2022-11-11T08:16:47;29.45;;;16.65;;
61200;SDS011;47065;52.898;6.992;2022-11-11T08:19:13;28.35;;;15.88;;
61200;SDS011;47065;52.898;6.992;2022-11-11T08:21:38;26.20;;;15.82;;
61200;SDS011;47065;52.898;6.992;2022-11-11T08:24:04;28.58;;;15.23;;
61200;SDS011;47065;52.898;6.992;2022-11-11T08:26:30;24.42;;;16.05;;
61200;SDS011;47065;52.898;6.992;2022-11-11T08:28:55;25.85;;;15.18;;
61200;SDS011;47065;52.898;6.992;2022-11-11T08:31:22;26.85;;;15.68;;
61200;SDS011;47065;52.898;6.992;2022-11-11T08:33:47;25.88;;;14.63;;
61200;SDS011;47065;52.898;6.992;2022-11-11T08:36:13;28.67;;;15.45;;
61200;SDS011;47065;52.898;6.992;2022-11-11T08:38:39;27.65;;;15.32;;
61200;SDS011;47065;52.898;6.992;2022-11-11T08:41:05;26.40;;;15.60;;
61200;SDS011;47065;52.898;6.992;2022-11-11T08:43:32;25.98;;;14.20;;
61200;SDS011;47065;52.898;6.992;2022-11-11T08:45:59;21.20;;;14.35;;
61200;SDS011;47065;52.898;6.992;2022-11-11T08:48:25;23.88;;;14.63;;
61200;SDS011;47065;52.898;6.992;2022-11-11T08:50:52;23.92;;;15.77;;
61200;SDS011;47065;52.898;6.992;2022-11-11T08:53:18;21.58;;;13.10;;
61200;SDS011;47065;52.898;6.992;2022-11-11T08:55:44;27.83;;;16.65;;
61200;SDS011;47065;52.898;6.992;2022-11-11T08:58:10;25.67;;;16.02;;
61200;SDS011;47065;52.898;6.992;2022-11-11T09:00:37;23.75;;;15.15;;
61200;SDS011;47065;52.898;6.992;2022-11-11T09:03:03;29.75;;;16.02;;
61200;SDS011;47065;52.898;6.992;2022-11-11T09:05:31;26.35;;;14.82;;
61200;SDS011;47065;52.898;6.992;2022-11-11T09:08:01;26.33;;;15.90;;
61200;SDS011;47065;52.898;6.992;2022-11-11T09:10:27;22.35;;;15.65;;
61200;SDS011;47065;52.898;6.992;2022-11-11T09:12:58;26.77;;;15.85;;
61200;SDS011;47065;52.898;6.992;2022-11-11T09:15:24;23.50;;;15.35;;
61200;SDS011;47065;52.898;6.992;2022-11-11T09:17:51;31.90;;;15.35;;
61200;SDS011;47065;52.898;6.992;2022-11-11T09:20:17;26.10;;;15.20;;
61200;SDS011;47065;52.898;6.992;2022-11-11T09:22:44;25.15;;;14.73;;
61200;SDS011;47065;52.898;6.992;2022-11-11T09:25:10;30.88;;;16.35;;
61200;SDS011;47065;52.898;6.992;2022-11-11T09:27:36;24.63;;;14.55;;
61200;SDS011;47065;52.898;6.992;2022-11-11T09:30:03;26.15;;;15.45;;
61200;SDS011;47065;52.898;6.992;2022-11-11T09:32:30;28.63;;;15.20;;
61200;SDS011;47065;52.898;6.992;2022-11-11T09:34:55;22.85;;;14.63;;
61200;SDS011;47065;52.898;6.992;2022-11-11T09:37:21;24.02;;;15.27;;
61200;SDS011;47065;52.898;6.992;2022-11-11T09:39:47;24.92;;;14.27;;
61200;SDS011;47065;52.898;6.992;2022-11-11T09:42:15;24.83;;;14.70;;
61200;SDS011;47065;52.898;6.992;2022-11-11T09:47:42;26.50;;;15.80;;
61200;SDS011;47065;52.898;6.992;2022-11-11T09:50:28;29.02;;;15.73;;
61200;SDS011;47065;52.898;6.992;2022-11-11T09:56:07;28.60;;;16.52;;
61200;SDS011;47065;52.898;6.992;2022-11-11T09:58:40;27.92;;;16.80;;
61200;SDS011;47065;52.898;6.992;2022-11-11T10:01:14;35.58;;;18.48;;
61200;SDS011;47065;52.898;6.992;2022-11-11T10:03:49;33.67;;;17.02;;
61200;SDS011;47065;52.898;6.992;2022-11-11T10:06:40;41.40;;;19.55;;
61200;SDS011;47065;52.898;6.992;2022-11-11T10:09:06;29.77;;;17.17;;
61200;SDS011;47065;52.898;6.992;2022-11-11T10:14:40;26.17;;;17.55;;
61200;SDS011;47065;52.898;6.992;2022-11-11T10:22:18;26.55;;;15.40;;
61200;SDS011;47065;52.898;6.992;2022-11-11T10:24:45;29.65;;;15.93;;
61200;SDS011;47065;52.898;6.992;2022-11-11T10:27:19;24.23;;;15.13;;
61200;SDS011;47065;52.898;6.992;2022-11-11T10:29:46;24.58;;;16.25;;
61200;SDS011;47065;52.898;6.992;2022-11-11T10:32:20;26.58;;;15.13;;
61200;SDS011;47065;52.898;6.992;2022-11-11T10:34:59;24.73;;;15.27;;
61200;SDS011;47065;52.898;6.992;2022-11-11T10:37:47;29.70;;;15.95;;
61200;SDS011;47065;52.898;6.992;2022-11-11T10:40:45;21.67;;;14.25;;
61200;SDS011;47065;52.898;6.992;2022-11-11T10:43:24;20.67;;;14.27;;
61200;SDS011;47065;52.898;6.992;2022-11-11T10:46:03;24.83;;;14.55;;
61200;SDS011;47065;52.898;6.992;2022-11-11T10:49:23;23.48;;;15.68;;
61200;SDS011;47065;52.898;6.992;2022-11-11T10:51:28;22.10;;;13.88;;
61200;SDS011;47065;52.898;6.992;2022-11-11T10:54:02;27.92;;;14.80;;
61200;SDS011;47065;52.898;6.992;2022-11-11T10:56:42;20.75;;;14.40;;
61200;SDS011;47065;52.898;6.992;2022-11-11T10:59:38;20.73;;;14.18;;
61200;SDS011;47065;52.898;6.992;2022-11-11T11:05:46;20.42;;;12.80;;
61200;SDS011;47065;52.898;6.992;2022-11-11T11:08:22;22.77;;;12.93;;
61200;SDS011;47065;52.898;6.992;2022-11-11T11:14:07;19.10;;;12.65;;
61200;SDS011;47065;52.898;6.992;2022-11-11T11:16:42;18.50;;;12.45;;
61200;SDS011;47065;52.898;6.992;2022-11-11T11:24:30;15.45;;;10.82;;
61200;SDS011;47065;52.898;6.992;2022-11-11T11:27:24;20.75;;;11.93;;
61200;SDS011;47065;52.898;6.992;2022-11-11T11:30:14;15.68;;;10.98;;
61200;SDS011;47065;52.898;6.992;2022-11-11T11:33:06;14.18;;;10.02;;
61200;SDS011;47065;52.898;6.992;2022-11-11T11:35:44;17.95;;;11.10;;
61200;SDS011;47065;52.898;6.992;2022-11-11T11:38:11;16.23;;;9.93;;
61200;SDS011;47065;52.898;6.992;2022-11-11T11:40:49;14.68;;;9.70;;
61200;SDS011;47065;52.898;6.992;2022-11-11T11:43:35;11.93;;;9.40;;
61200;SDS011;47065;52.898;6.992;2022-11-11T11:46:03;17.65;;;10.15;;
61200;SDS011;47065;52.898;6.992;2022-11-11T11:54:12;15.85;;;9.68;;
61200;SDS011;47065;52.898;6.992;2022-11-11T11:56:48;10.98;;;8.20;;
61200;SDS011;47065;52.898;6.992;2022-11-11T12:00:00;10.90;;;8.73;;
61200;SDS011;47065;52.898;6.992;2022-11-11T12:11:07;11.15;;;8.05;;
61200;SDS011;47065;52.898;6.992;2022-11-11T12:25:39;14.00;;;8.40;;
61200;SDS011;47065;52.898;6.992;2022-11-11T12:36:43;10.32;;;7.88;;
61200;SDS011;47065;52.898;6.992;2022-11-11T12:42:25;17.02;;;8.77;;
61200;SDS011;47065;52.898;6.992;2022-11-11T12:50:21;11.52;;;8.15;;
61200;SDS011;47065;52.898;6.992;2022-11-11T12:53:24;10.57;;;7.82;;
61200;SDS011;47065;52.898;6.992;2022-11-11T12:59:09;11.65;;;7.93;;
61200;SDS011;47065;52.898;6.992;2022-11-11T13:12:44;10.70;;;8.13;;
61200;SDS011;47065;52.898;6.992;2022-11-11T13:15:17;13.02;;;7.68;;
61200;SDS011;47065;52.898;6.992;2022-11-11T13:17:47;12.93;;;8.23;;
61200;SDS011;47065;52.898;6.992;2022-11-11T13:23:08;11.13;;;8.18;;
61200;SDS011;47065;52.898;6.992;2022-11-11T13:25:35;14.40;;;8.32;;
61200;SDS011;47065;52.898;6.992;2022-11-11T13:30:47;10.15;;;7.07;;
61200;SDS011;47065;52.898;6.992;2022-11-11T13:33:17;11.27;;;8.10;;
61200;SDS011;47065;52.898;6.992;2022-11-11T13:35:50;9.77;;;6.82;;
61200;SDS011;47065;52.898;6.992;2022-11-11T13:38:26;12.00;;;7.35;;
61200;SDS011;47065;52.898;6.992;2022-11-11T13:40:59;12.25;;;7.13;;
61200;SDS011;47065;52.898;6.992;2022-11-11T13:43:29;11.88;;;6.82;;
61200;SDS011;47065;52.898;6.992;2022-11-11T13:45:59;11.43;;;6.80;;
61200;SDS011;47065;52.898;6.992;2022-11-11T13:48:27;9.15;;;6.65;;
61200;SDS011;47065;52.898;6.992;2022-11-11T13:51:29;8.55;;;6.68;;
61200;SDS011;47065;52.898;6.992;2022-11-11T13:54:03;10.95;;;6.38;;
61200;SDS011;47065;52.898;6.992;2022-11-11T13:59:16;10.18;;;6.10;;
61200;SDS011;47065;52.898;6.992;2022-11-11T14:02:11;12.07;;;7.03;;
61200;SDS011;47065;52.898;6.992;2022-11-11T14:10:06;11.95;;;6.95;;
61200;SDS011;47065;52.898;6.992;2022-11-11T14:12:33;12.38;;;7.07;;
61200;SDS011;47065;52.898;6.992;2022-11-11T14:15:04;12.13;;;6.50;;
61200;SDS011;47065;52.898;6.992;2022-11-11T14:17:49;10.20;;;6.72;;
61200;SDS011;47065;52.898;6.992;2022-11-11T14:25:47;9.68;;;6.57;;
61200;SDS011;47065;52.898;6.992;2022-11-11T14:28:27;10.88;;;6.57;;
61200;SDS011;47065;52.898;6.992;2022-11-11T14:30:56;11.27;;;6.57;;
61200;SDS011;47065;52.898;6.992;2022-11-11T14:36:27;11.75;;;6.65;;
61200;SDS011;47065;52.898;6.992;2022-11-11T14:42:02;11.00;;;7.20;;
61200;SDS011;47065;52.898;6.992;2022-11-11T14:52:18;10.93;;;6.95;;
61200;SDS011;47065;52.898;6.992;2022-11-11T14:57:46;10.88;;;6.55;;
61200;SDS011;47065;52.898;6.992;2022-11-11T15:00:19;10.85;;;6.93;;
61200;SDS011;47065;52.898;6.992;2022-11-11T15:02:54;15.88;;;6.45;;
61200;SDS011;47065;52.898;6.992;2022-11-11T15:05:42;8.77;;;6.07;;
61200;SDS011;47065;52.898;6.992;2022-11-11T15:08:29;8.35;;;6.22;;
61200;SDS011;47065;52.898;6.992;2022-11-11T15:22:24;10.88;;;6.63;;
61200;SDS011;47065;52.898;6.992;2022-11-11T15:34:22;14.98;;;6.88;;
61200;SDS011;47065;52.898;6.992;2022-11-11T15:37:10;10.15;;;7.07;;
61200;SDS011;47065;52.898;6.992;2022-11-11T15:42:08;11.90;;;7.22;;
61200;SDS011;47065;52.898;6.992;2022-11-11T15:44:45;8.10;;;6.18;;
61200;SDS011;47065;52.898;6.992;2022-11-11T15:47:11;10.05;;;7.15;;
61200;SDS011;47065;52.898;6.992;2022-11-11T15:49:39;12.93;;;7.18;;
61200;SDS011;47065;52.898;6.992;2022-11-11T15:52:27;12.27;;;7.15;;
61200;SDS011;47065;52.898;6.992;2022-11-11T15:54:58;12.38;;;6.78;;
61200;SDS011;47065;52.898;6.992;2022-11-11T15:59:56;11.57;;;6.75;;
61200;SDS011;47065;52.898;6.992;2022-11-11T16:02:27;14.50;;;7.93;;
61200;SDS011;47065;52.898;6.992;2022-11-11T16:07:30;11.30;;;6.40;;
61200;SDS011;47065;52.898;6.992;2022-11-11T16:10:04;17.15;;;7.10;;
61200;SDS011;47065;52.898;6.992;2022-11-11T16:12:56;12.80;;;7.47;;
61200;SDS011;47065;52.898;6.992;2022-11-11T16:18:25;17.23;;;7.60;;
61200;SDS011;47065;52.898;6.992;2022-11-11T16:23:24;11.00;;;7.00;;
61200;SDS011;47065;52.898;6.992;2022-11-11T16:25:51;11.20;;;6.97;;
61200;SDS011;47065;52.898;6.992;2022-11-11T16:28:17;12.95;;;7.63;;
61200;SDS011;47065;52.898;6.992;2022-11-11T16:30:43;9.23;;;6.20;;
61200;SDS011;47065;52.898;6.992;2022-11-11T16:33:19;10.45;;;6.20;;
61200;SDS011;47065;52.898;6.992;2022-11-11T16:35:51;13.27;;;6.07;;
61200;SDS011;47065;52.898;6.992;2022-11-11T16:38:29;11.20;;;6.15;;
61200;SDS011;47065;52.898;6.992;2022-11-11T16:40:56;12.50;;;6.60;;
61200;SDS011;47065;52.898;6.992;2022-11-11T16:43:23;14.70;;;9.10;;
61200;SDS011;47065;52.898;6.992;2022-11-11T16:46:01;14.10;;;8.68;;
61200;SDS011;47065;52.898;6.992;2022-11-11T16:50:58;13.95;;;9.95;;
61200;SDS011;47065;52.898;6.992;2022-11-11T16:53:34;17.15;;;7.57;;
61200;SDS011;47065;52.898;6.992;2022-11-11T16:56:15;14.07;;;7.00;;
61200;SDS011;47065;52.898;6.992;2022-11-11T16:58:58;13.57;;;6.82;;
61200;SDS011;47065;52.898;6.992;2022-11-11T17:01:29;18.00;;;7.50;;
61200;SDS011;47065;52.898;6.992;2022-11-11T17:04:08;11.77;;;7.03;;
61200;SDS011;47065;52.898;6.992;2022-11-11T17:06:51;9.93;;;5.95;;
61200;SDS011;47065;52.898;6.992;2022-11-11T17:09:37;11.07;;;5.97;;
61200;SDS011;47065;52.898;6.992;2022-11-11T17:12:05;10.32;;;6.45;;
61200;SDS011;47065;52.898;6.992;2022-11-11T17:14:33;11.93;;;6.20;;
61200;SDS011;47065;52.898;6.992;2022-11-11T17:17:01;14.48;;;6.43;;
61200;SDS011;47065;52.898;6.992;2022-11-11T17:19:29;11.68;;;7.18;;
61200;SDS011;47065;52.898;6.992;2022-11-11T17:22:03;9.75;;;6.70;;
61200;SDS011;47065;52.898;6.992;2022-11-11T17:24:33;11.07;;;6.85;;
61200;SDS011;47065;52.898;6.992;2022-11-11T17:26:59;15.85;;;7.32;;
61200;SDS011;47065;52.898;6.992;2022-11-11T17:29:25;10.23;;;6.85;;
61200;SDS011;47065;52.898;6.992;2022-11-11T17:31:50;13.75;;;6.75;;
61200;SDS011;47065;52.898;6.992;2022-11-11T17:34:16;12.98;;;6.75;;
61200;SDS011;47065;52.898;6.992;2022-11-11T17:36:42;11.18;;;7.00;;
61200;SDS011;47065;52.898;6.992;2022-11-11T17:39:07;12.20;;;7.10;;